Time;durP1;ratioP1;P1;durP2;ratioP2;P2;SDS_P1;SDS_P2;PMS_P1;PMS_P2;Temp;Humidity;BMP_temperature;BMP_pressure;BME280_temperature;BME280_humidity;BME280_pressure;Samples;Min_cycle;Max_cycle;Signal;HPM_P1;HPM_P2
2022/08/11 00:01:47;;;;;;;5.35;4.05;;;20.40;99.90;;;;;;5152536;27;20046;-67
2022/08/11 00:04:14;;;;;;;6.55;3.95;;;20.30;99.90;;;;;;5152450;27;20039;-66
2022/08/11 00:06:41;;;;;;;4.80;3.92;;;20.30;99.90;;;;;;5152685;27;20336;-66
2022/08/11 00:09:13;;;;;;;9.70;4.00;;;20.20;99.90;;;;;;5119177;28;20047;-66
2022/08/11 00:11:44;;;;;;;6.38;3.72;;;20.20;99.90;;;;;;5119082;28;20070;-66
2022/08/11 00:14:13;;;;;;;6.22;3.97;;;20.20;99.90;;;;;;5152288;27;20515;-66
2022/08/11 00:16:40;;;;;;;6.95;4.15;;;20.20;99.90;;;;;;5118330;28;20043;-66
2022/08/11 00:19:08;;;;;;;8.00;3.78;;;20.20;99.90;;;;;;5119012;28;20057;-66
2022/08/11 00:21:40;;;;;;;7.07;4.20;;;20.20;99.90;;;;;;5118738;28;20051;-66
2022/08/11 00:24:07;;;;;;;5.80;3.65;;;20.10;99.90;;;;;;5118708;28;20042;-66
2022/08/11 00:26:35;;;;;;;7.53;3.95;;;20.00;99.90;;;;;;5118064;28;20314;-66
2022/08/11 00:29:11;;;;;;;4.95;3.67;;;20.10;99.90;;;;;;5118662;28;20340;-66
2022/08/11 00:31:37;;;;;;;;;;;20.00;99.90;;;;;;5119353;28;20351;-68
2022/08/11 00:34:10;;;;;;;5.60;4.40;;;20.00;99.90;;;;;;5117803;28;19915;-68
2022/08/11 00:37:07;;;;;;;6.40;4.28;;;20.00;99.90;;;;;;5118260;28;20050;-69
2022/08/11 00:39:41;;;;;;;5.18;4.07;;;19.90;99.90;;;;;;5110191;28;20052;-69
2022/08/11 00:42:24;;;;;;;6.47;4.05;;;19.90;99.90;;;;;;5118485;28;20035;-68
2022/08/11 00:44:53;;;;;;;7.72;4.53;;;19.90;99.90;;;;;;5151259;27;20039;-69
2022/08/11 00:47:30;;;;;;;6.72;4.68;;;19.90;99.90;;;;;;5151558;27;20039;-68
2022/08/11 00:50:26;;;;;;;9.82;4.95;;;19.90;99.90;;;;;;5117985;28;20065;-69
2022/08/11 00:53:03;;;;;;;7.03;4.53;;;19.80;99.90;;;;;;5118489;28;20035;-68
2022/08/11 00:56:09;;;;;;;6.53;4.30;;;19.80;99.90;;;;;;5118076;28;20061;-68
2022/08/11 00:58:34;;;;;;;7.88;4.97;;;19.80;99.90;;;;;;5118116;28;20031;-69
2022/08/11 01:01:15;;;;;;;8.23;4.85;;;19.80;99.90;;;;;;5118250;28;20450;-69
2022/08/11 01:03:53;;;;;;;7.13;4.90;;;19.80;99.90;;;;;;5151568;27;20423;-68
2022/08/11 01:06:49;;;;;;;10.30;5.05;;;19.80;99.90;;;;;;5117949;28;20058;-68
2022/08/11 01:09:20;;;;;;;7.43;4.95;;;19.70;99.90;;;;;;5116752;28;20096;-68
2022/08/11 01:12:19;;;;;;;7.05;4.88;;;19.70;99.90;;;;;;5117846;28;20036;-69
2022/08/11 01:15:13;;;;;;;8.18;5.25;;;19.60;99.90;;;;;;5116986;28;20035;-68
2022/08/11 01:18:07;;;;;;;5.70;4.63;;;19.60;99.90;;;;;;5117631;28;20038;-68
2022/08/11 01:21:00;;;;;;;8.13;5.38;;;19.50;99.90;;;;;;5117726;28;20520;-68
2022/08/11 01:23:41;;;;;;;8.68;5.78;;;19.50;99.90;;;;;;5117845;28;20044;-68
2022/08/11 01:26:41;;;;;;;7.35;4.88;;;19.40;99.90;;;;;;5150914;27;20043;-68
2022/08/11 01:29:31;;;;;;;8.93;5.10;;;19.40;99.90;;;;;;5117516;28;20040;-68
2022/08/11 01:32:34;;;;;;;6.32;5.10;;;19.40;99.90;;;;;;5117556;28;20075;-68
2022/08/11 01:35:24;;;;;;;6.72;5.32;;;19.40;99.90;;;;;;5117306;28;20050;-68
2022/08/11 01:38:08;;;;;;;7.70;5.68;;;19.40;99.90;;;;;;5117425;28;20040;-68
2022/08/11 01:41:11;;;;;;;6.30;4.65;;;19.30;99.90;;;;;;5117578;28;20149;-68
2022/08/11 01:46:52;;;;;;;8.32;6.20;;;19.20;99.90;;;;;;5116750;28;20482;-69
2022/08/11 01:49:39;;;;;;;7.18;5.38;;;19.20;99.90;;;;;;5117383;28;20040;-68
2022/08/11 01:52:14;;;;;;;9.43;5.93;;;19.20;99.90;;;;;;5117213;28;20043;-68
2022/08/11 01:54:57;;;;;;;7.32;5.50;;;19.30;99.90;;;;;;5117425;27;20089;-69
2022/08/11 01:57:52;;;;;;;10.13;6.40;;;19.30;99.90;;;;;;5116365;28;20358;-68
2022/08/11 02:00:25;;;;;;;9.75;5.57;;;19.30;99.90;;;;;;5117214;28;20048;-68
2022/08/11 02:03:09;;;;;;;8.65;6.25;;;19.30;99.90;;;;;;5117289;28;20051;-68
2022/08/11 02:05:59;;;;;;;9.80;6.10;;;19.30;99.90;;;;;;5116941;28;20039;-68
2022/08/11 02:08:48;;;;;;;8.35;6.45;;;19.20;99.90;;;;;;5117098;28;20058;-68
2022/08/11 02:11:35;;;;;;;9.27;6.30;;;19.20;99.90;;;;;;5117292;28;20036;-68
2022/08/11 02:14:11;;;;;;;;;;;19.20;99.90;;;;;;5117415;28;20036;-66
2022/08/11 02:16:37;;;;;;;9.75;6.63;;;19.10;99.90;;;;;;5116710;28;19915;-66
2022/08/11 02:25:05;;;;;;;11.70;6.65;;;19.20;99.90;;;;;;5116787;28;20063;-66
2022/08/11 02:28:00;;;;;;;11.52;6.97;;;19.10;99.90;;;;;;5116542;28;20048;-66
2022/08/11 02:30:33;;;;;;;9.50;6.50;;;19.20;99.90;;;;;;5116800;28;20044;-66
2022/08/11 02:33:22;;;;;;;9.15;6.60;;;19.20;99.90;;;;;;5116714;28;20036;-66
2022/08/11 02:35:56;;;;;;;10.60;6.90;;;19.20;99.90;;;;;;5116856;28;20035;-66
2022/08/11 02:38:42;;;;;;;12.27;7.35;;;19.20;99.90;;;;;;5116733;28;20046;-66
2022/08/11 02:44:27;;;;;;;10.70;6.97;;;19.10;99.90;;;;;;5150640;27;20094;-66
2022/08/11 02:46:58;;;;;;;10.70;7.30;;;19.10;99.90;;;;;;5116518;28;20044;-66
2022/08/11 02:49:52;;;;;;;9.65;6.55;;;19.10;99.90;;;;;;5116695;28;20119;-66
2022/08/11 02:52:28;;;;;;;11.65;7.35;;;19.20;99.90;;;;;;5120862;28;20040;-66
2022/08/11 02:55:23;;;;;;;11.55;7.72;;;19.10;99.90;;;;;;5120610;28;20040;-66
2022/08/11 02:58:24;;;;;;;11.63;8.27;;;19.20;99.90;;;;;;5111386;27;20042;-66
2022/08/11 03:00:56;;;;;;;9.13;7.45;;;19.10;99.90;;;;;;5104097;27;20040;-66
2022/08/11 03:03:43;;;;;;;9.38;7.40;;;19.10;99.90;;;;;;5120316;28;20152;-66
2022/08/11 03:06:22;;;;;;;13.15;7.88;;;19.00;99.90;;;;;;5120470;28;20054;-66
2022/08/11 03:09:03;;;;;;;11.18;8.68;;;19.00;99.90;;;;;;5119988;28;20047;-66
2022/08/11 03:17:31;;;;;;;10.60;8.05;;;18.90;99.90;;;;;;5120228;28;20074;-66
2022/08/11 03:20:21;;;;;;;11.75;8.52;;;18.90;99.90;;;;;;5119840;28;20071;-66
2022/08/11 03:23:07;;;;;;;11.02;7.72;;;19.00;99.90;;;;;;5153581;27;20404;-66
2022/08/11 03:25:51;;;;;;;11.75;7.88;;;19.00;99.90;;;;;;5119788;28;20044;-66
2022/08/11 03:28:35;;;;;;;11.15;7.50;;;18.90;99.90;;;;;;5119641;28;20055;-66
2022/08/11 03:31:23;;;;;;;12.57;8.73;;;18.90;99.90;;;;;;5119831;28;20047;-66
2022/08/11 03:34:10;;;;;;;12.32;7.70;;;18.90;99.90;;;;;;5119637;28;20047;-66
2022/08/11 03:36:43;;;;;;;10.00;7.40;;;18.90;99.90;;;;;;5119597;28;20448;-66
2022/08/11 03:39:35;;;;;;;13.13;8.18;;;18.90;99.90;;;;;;5119617;28;20040;-66
2022/08/11 03:42:16;;;;;;;10.70;7.75;;;18.90;99.90;;;;;;5113691;27;20508;-66
2022/08/11 03:44:47;;;;;;;10.52;7.72;;;18.90;99.90;;;;;;5119744;28;20035;-66
2022/08/11 03:47:35;;;;;;;11.38;7.85;;;18.90;99.90;;;;;;5118969;28;20036;-66
2022/08/11 03:50:22;;;;;;;12.55;7.90;;;18.80;99.90;;;;;;5119238;28;20071;-66
2022/08/11 03:53:08;;;;;;;10.52;7.90;;;18.80;99.90;;;;;;5119605;28;20048;-66
2022/08/11 03:56:13;;;;;;;11.65;8.30;;;18.80;99.90;;;;;;5119290;28;20039;-66
2022/08/11 03:59:23;;;;;;;13.27;8.07;;;18.80;99.90;;;;;;5119196;28;20224;-67
2022/08/11 04:02:07;;;;;;;12.93;8.55;;;18.90;99.90;;;;;;5107331;27;20047;-66
2022/08/11 04:04:54;;;;;;;15.00;9.20;;;18.90;99.90;;;;;;5119531;28;20046;-66
2022/08/11 04:07:58;;;;;;;11.50;8.55;;;19.10;99.90;;;;;;5119140;28;20043;-66
2022/08/11 04:11:01;;;;;;;12.23;7.80;;;19.40;99.90;;;;;;5119238;28;20425;-66
2022/08/11 04:13:48;;;;;;;12.55;8.38;;;19.30;99.90;;;;;;5118833;28;20437;-66
2022/08/11 04:16:54;;;;;;;14.70;10.00;;;19.20;99.90;;;;;;5118602;28;20140;-66
2022/08/11 04:19:45;;;;;;;16.95;9.20;;;19.20;99.90;;;;;;5118950;28;20045;-66
2022/08/11 04:22:22;;;;;;;12.00;8.43;;;19.20;99.90;;;;;;5118986;28;20050;-66
2022/08/11 04:25:18;;;;;;;13.48;9.68;;;19.10;99.90;;;;;;5118864;28;20054;-66
2022/08/11 04:27:53;;;;;;;13.63;8.73;;;19.10;99.90;;;;;;5118631;28;20107;-66
2022/08/11 04:30:52;;;;;;;10.88;8.13;;;19.10;99.90;;;;;;5118702;28;20190;-66
2022/08/11 04:33:37;;;;;;;14.60;10.05;;;19.00;99.90;;;;;;5118562;28;20040;-66
2022/08/11 04:36:17;;;;;;;17.80;10.48;;;19.00;99.90;;;;;;5118648;28;20043;-66
2022/08/11 04:38:57;;;;;;;15.50;10.48;;;19.00;99.90;;;;;;5118567;28;20039;-66
2022/08/11 04:45:15;;;;;;;17.02;10.50;;;19.10;99.90;;;;;;5152024;27;20192;-66
2022/08/11 05:02:59;;;;;;;23.02;14.15;;;19.40;99.90;;;;;;5118068;28;20484;-66
2022/08/11 05:05:53;;;;;;;14.27;9.88;;;19.30;99.90;;;;;;5117816;28;20047;-66
2022/08/11 05:08:34;;;;;;;13.90;9.98;;;19.30;99.90;;;;;;5117976;28;20088;-66
2022/08/11 05:11:13;;;;;;;17.02;9.68;;;19.30;99.90;;;;;;5118111;28;20039;-66
2022/08/11 05:36:49;;;;;;;11.10;8.00;;;20.10;99.90;;;;;;5117631;28;20122;-66
2022/08/11 05:56:57;;;;;;;13.20;7.90;;;20.90;99.90;;;;;;5117197;28;20046;-66
2022/08/11 05:59:24;;;;;;;12.00;7.57;;;20.90;99.90;;;;;;5117225;28;20075;-66
2022/08/11 06:01:50;;;;;;;11.60;8.77;;;21.00;99.90;;;;;;5116990;28;20085;-66
2022/08/11 06:04:20;;;;;;;10.25;6.68;;;21.10;99.90;;;;;;5116927;28;20447;-66
2022/08/11 06:06:59;;;;;;;13.85;7.78;;;21.10;99.90;;;;;;5117004;28;20395;-66
2022/08/11 06:09:47;;;;;;;16.55;10.70;;;21.00;99.90;;;;;;5116821;28;20421;-66
2022/08/11 06:12:20;;;;;;;16.60;9.13;;;21.10;99.90;;;;;;5116917;28;20101;-66
2022/08/11 06:14:52;;;;;;;15.40;9.93;;;21.10;99.90;;;;;;5116960;28;20101;-66
2022/08/11 06:17:31;;;;;;;13.05;8.38;;;21.30;99.90;;;;;;5116540;28;20039;-66
2022/08/11 06:20:03;;;;;;;17.15;9.80;;;21.40;99.90;;;;;;5118691;27;20376;-78
2022/08/11 06:22:30;;;;;;;12.48;8.63;;;21.50;99.90;;;;;;5156456;27;20040;-66
2022/08/11 06:25:00;;;;;;;13.32;9.07;;;21.60;99.90;;;;;;5136442;27;20044;-68
2022/08/11 06:27:32;;;;;;;16.23;9.23;;;21.70;99.90;;;;;;5139718;27;20054;-69
2022/08/11 06:29:59;;;;;;;14.57;9.77;;;21.70;99.90;;;;;;5160140;27;20058;-69
2022/08/11 06:32:36;;;;;;;13.70;9.85;;;21.80;99.90;;;;;;5140877;27;20411;-66
2022/08/11 06:35:25;;;;;;;15.00;9.77;;;21.80;99.90;;;;;;5131062;27;20035;-68
2022/08/11 06:38:03;;;;;;;11.52;8.27;;;21.90;99.90;;;;;;5131641;27;20427;-66
2022/08/11 06:41:29;;;;;;;13.35;9.55;;;22.10;99.90;;;;;;5137561;27;20330;-67
2022/08/11 06:43:44;;;;;;;13.50;8.77;;;22.30;99.90;;;;;;5133075;27;20114;-67
2022/08/11 06:46:13;;;;;;;13.30;9.77;;;22.20;99.90;;;;;;5119085;28;20039;-66
2022/08/11 06:48:44;;;;;;;14.30;9.00;;;22.20;99.90;;;;;;5120730;28;20097;-66
2022/08/11 06:51:11;;;;;;;12.15;9.10;;;22.10;99.90;;;;;;5120679;27;20119;-66
2022/08/11 06:53:45;;;;;;;12.85;8.55;;;22.20;99.90;;;;;;5120537;28;20038;-66
2022/08/11 07:01:54;;;;;;;;;;;22.50;99.90;;;;;;5121013;28;20047;-66
2022/08/11 07:04:38;;;;;;;14.00;8.77;;;22.60;99.90;;;;;;5120359;27;19923;-67
2022/08/11 07:15:58;;;;;;;14.13;7.72;;;22.90;99.90;;;;;;5119776;28;20074;-67
2022/08/11 07:30:03;;;;;;;10.35;5.80;;;23.60;99.90;;;;;;5153116;27;20054;-67
2022/08/11 07:32:32;;;;;;;10.48;6.20;;;23.50;99.90;;;;;;5119700;27;20043;-67
2022/08/11 07:35:14;;;;;;;9.05;6.03;;;23.70;99.90;;;;;;5119930;28;20058;-67
2022/08/11 07:37:46;;;;;;;10.32;6.50;;;23.90;99.90;;;;;;5119645;28;20378;-67
2022/08/11 07:40:13;;;;;;;9.15;4.68;;;23.90;99.90;;;;;;5119994;28;20051;-68
2022/08/11 07:42:43;;;;;;;8.20;5.13;;;23.80;99.90;;;;;;5101511;28;20050;-69
2022/08/11 07:53:29;;;;;;;9.40;4.50;;;23.90;99.90;;;;;;5119588;28;20086;-67
2022/08/11 07:55:57;;;;;;;9.80;5.25;;;23.90;99.90;;;;;;5119178;28;20432;-73
2022/08/11 08:18:01;;;;;;;5.47;3.78;;;24.50;99.90;;;;;;5118788;28;20069;-68
2022/08/11 08:20:39;;;;;;;9.50;3.80;;;24.90;99.90;;;;;;5118890;28;20428;-68
2022/08/11 08:23:06;;;;;;;6.13;4.13;;;25.00;99.90;;;;;;5118886;28;20118;-68
2022/08/11 08:25:35;;;;;;;9.13;3.50;;;25.20;99.90;;;;;;5118728;28;20418;-68
2022/08/11 08:28:12;;;;;;;7.80;3.50;;;25.40;99.90;;;;;;5117283;28;20055;-68
2022/08/11 08:30:46;;;;;;;8.32;3.30;;;25.60;99.90;;;;;;5118725;28;20078;-67
2022/08/11 08:33:23;;;;;;;6.13;2.90;;;25.90;99.90;;;;;;5118816;28;20420;-69
2022/08/11 08:36:13;;;;;;;8.05;3.20;;;25.90;99.90;;;;;;5151950;27;20305;-69
2022/08/11 08:38:47;;;;;;;6.68;3.13;;;26.00;99.90;;;;;;5118703;28;20130;-68
2022/08/11 08:41:18;;;;;;;6.40;3.40;;;26.10;99.90;;;;;;5118787;28;20075;-68
2022/08/11 08:43:50;;;;;;;6.47;3.38;;;26.20;99.90;;;;;;5118321;28;20327;-68
2022/08/11 08:46:20;;;;;;;4.93;3.10;;;26.20;99.90;;;;;;5117994;27;20420;-68
2022/08/11 08:48:48;;;;;;;5.18;2.75;;;26.10;99.90;;;;;;5117712;28;20035;-68
2022/08/11 08:51:33;;;;;;;7.43;2.53;;;26.10;99.90;;;;;;5118442;28;20047;-68
2022/08/11 08:54:04;;;;;;;6.25;2.83;;;26.20;99.50;;;;;;5118448;28;20040;-68
2022/08/11 08:56:33;;;;;;;3.53;2.67;;;26.30;99.80;;;;;;5118218;28;20043;-67
2022/08/11 08:59:01;;;;;;;6.47;2.75;;;26.50;99.70;;;;;;5118117;28;20086;-68
2022/08/11 09:01:51;;;;;;;6.43;2.55;;;26.50;99.30;;;;;;5117859;28;20040;-68
2022/08/11 09:04:19;;;;;;;3.17;2.08;;;26.70;99.60;;;;;;5118531;28;20042;-68
2022/08/11 09:06:46;;;;;;;5.03;1.90;;;27.00;99.40;;;;;;5116826;28;20156;-69
2022/08/11 09:09:13;;;;;;;3.83;2.03;;;27.10;99.20;;;;;;5099748;28;20329;-68
2022/08/11 09:11:52;;;;;;;3.50;1.95;;;27.30;99.70;;;;;;5151138;27;20036;-69
2022/08/11 09:14:59;;;;;;;3.80;2.60;;;27.30;99.20;;;;;;5117928;28;20043;-69
2022/08/11 09:17:17;;;;;;;5.68;1.92;;;27.30;99.10;;;;;;5116226;28;20044;-68
2022/08/11 09:19:44;;;;;;;6.25;2.20;;;27.40;99.40;;;;;;5117647;28;20424;-68
2022/08/11 09:27:40;;;;;;;4.15;1.95;;;28.00;97.90;;;;;;5117493;28;20112;-71
2022/08/11 09:30:07;;;;;;;8.30;2.10;;;28.20;98.30;;;;;;5117508;28;20048;-70
2022/08/11 09:32:35;;;;;;;4.88;1.65;;;28.20;98.30;;;;;;5150596;27;20114;-74
2022/08/11 09:35:02;;;;;;;2.40;1.58;;;28.40;98.40;;;;;;5116336;28;20040;-70
2022/08/11 09:40:30;;;;;;;;;;;28.50;98.30;;;;;;5117983;28;20056;-72
2022/08/11 09:45:50;;;;;;;3.33;1.20;;;29.00;97.80;;;;;;5117146;28;20090;-70
2022/08/11 09:48:17;;;;;;;1.98;1.10;;;29.10;97.40;;;;;;5117332;28;20066;-68
2022/08/11 09:50:47;;;;;;;6.47;1.48;;;29.00;96.90;;;;;;5099118;28;20051;-69
2022/08/11 09:53:15;;;;;;;4.15;1.70;;;29.00;97.10;;;;;;5117331;28;20044;-70
2022/08/11 09:55:44;;;;;;;4.22;1.60;;;29.10;97.00;;;;;;5117148;28;20040;-69
2022/08/11 09:58:15;;;;;;;3.80;1.23;;;29.20;96.90;;;;;;5117201;28;20040;-69
2022/08/11 10:00:42;;;;;;;3.72;1.50;;;29.10;96.50;;;;;;5116336;28;20044;-69
2022/08/11 10:03:19;;;;;;;4.45;1.50;;;29.30;96.30;;;;;;5150102;27;20436;-69
2022/08/11 10:08:43;;;;;;;3.57;1.20;;;29.50;96.60;;;;;;5117039;28;20105;-69
2022/08/11 10:11:11;;;;;;;4.45;1.50;;;29.20;96.40;;;;;;5150263;27;20048;-70
2022/08/11 10:16:28;;;;;;;3.15;1.58;;;29.90;96.20;;;;;;5116440;28;20047;-68
2022/08/11 10:18:57;;;;;;;2.72;1.27;;;30.00;96.30;;;;;;5116951;27;20067;-67
2022/08/11 10:21:28;;;;;;;2.90;1.30;;;30.20;95.70;;;;;;5125962;28;20031;-70
2022/08/11 10:26:53;;;;;;;6.05;1.23;;;30.60;96.20;;;;;;5133583;28;20551;-68
2022/08/11 10:35:08;;;;;;;3.88;1.42;;;31.40;96.00;;;;;;5116978;28;20097;-67
2022/08/11 10:37:35;;;;;;;4.75;1.15;;;31.30;95.40;;;;;;5116636;28;20483;-68
2022/08/11 10:40:04;;;;;;;3.10;1.33;;;31.50;95.70;;;;;;5116774;28;20067;-66
2022/08/11 10:48:02;;;;;;;5.57;1.30;;;31.80;95.20;;;;;;5116652;28;20541;-68
2022/08/11 10:58:49;;;;;;;2.80;1.30;;;31.20;94.80;;;;;;5115449;28;20040;-68
2022/08/11 11:01:23;;;;;;;4.10;1.10;;;31.20;94.40;;;;;;5116735;28;20042;-69
2022/08/11 11:04:00;;;;;;;4.55;1.45;;;31.40;94.50;;;;;;5116532;28;20035;-69
2022/08/11 11:06:43;;;;;;;3.20;1.08;;;31.60;94.70;;;;;;5117947;27;20039;-70
2022/08/11 11:09:17;;;;;;;4.75;1.30;;;31.70;94.40;;;;;;5127644;28;20092;-69
2022/08/11 11:20:22;;;;;;;2.63;1.10;;;32.70;94.90;;;;;;5140457;27;20108;-72
2022/08/11 11:22:51;;;;;;;2.90;1.17;;;33.00;94.20;;;;;;5138533;27;20158;-69
2022/08/11 11:25:23;;;;;;;4.82;1.23;;;32.80;94.30;;;;;;5132848;27;20036;-69
2022/08/11 11:28:06;;;;;;;2.60;1.05;;;32.60;93.90;;;;;;5119637;28;20138;-70
2022/08/11 11:30:55;;;;;;;2.28;1.05;;;32.90;94.30;;;;;;5129177;27;20043;-75
2022/08/11 11:33:41;;;;;;;4.18;1.23;;;33.10;94.10;;;;;;5138355;27;20039;-70
2022/08/11 11:36:09;;;;;;;;;;;33.40;93.80;;;;;;5141121;27;20043;-67
2022/08/11 11:38:35;;;;;;;2.30;1.10;;;33.50;93.80;;;;;;5122135;27;19915;-69
2022/08/11 11:43:46;;;;;;;3.58;1.27;;;33.60;93.80;;;;;;5129462;27;20047;-77
2022/08/11 11:46:12;;;;;;;2.67;1.35;;;33.70;93.90;;;;;;5134847;27;20251;-72
2022/08/11 11:48:40;;;;;;;3.70;1.20;;;33.70;93.50;;;;;;5139019;27;20050;-70
2022/08/11 11:51:06;;;;;;;1.85;1.10;;;33.90;94.00;;;;;;5139312;27;20042;-68
2022/08/11 11:53:33;;;;;;;3.65;1.10;;;34.00;93.90;;;;;;5139061;27;20039;-67
2022/08/11 11:56:00;;;;;;;7.70;1.17;;;33.60;93.20;;;;;;5139910;27;20049;-67
2022/08/11 12:01:15;;;;;;;3.95;1.30;;;34.00;94.00;;;;;;5140128;27;20097;-68
2022/08/11 12:03:44;;;;;;;4.40;1.08;;;34.00;93.10;;;;;;5139878;27;20046;-67
2022/08/11 12:06:13;;;;;;;3.08;1.10;;;33.70;93.30;;;;;;5139710;27;20423;-68
2022/08/11 12:08:40;;;;;;;1.60;1.10;;;33.90;93.10;;;;;;5138524;27;20423;-67
2022/08/11 12:13:56;;;;;;;2.33;1.17;;;34.70;93.20;;;;;;5138669;27;20484;-67
2022/08/11 12:16:22;;;;;;;3.95;0.93;;;34.90;93.00;;;;;;5139236;27;20035;-70
2022/08/11 12:19:00;;;;;;;4.20;0.98;;;35.10;93.00;;;;;;5139443;27;20039;-71
2022/08/11 12:21:28;;;;;;;4.00;1.00;;;34.50;92.90;;;;;;5138548;27;20331;-71
2022/08/11 12:29:14;;;;;;;5.22;1.55;;;32.40;92.10;;;;;;5138479;27;20053;-71
2022/08/11 12:31:41;;;;;;;2.67;1.10;;;32.30;92.40;;;;;;5138270;27;20035;-68
2022/08/11 12:34:09;;;;;;;3.95;1.45;;;32.60;92.90;;;;;;5137974;27;20043;-69
2022/08/11 12:36:56;;;;;;;4.13;1.10;;;33.30;92.50;;;;;;5139444;27;20060;-69
2022/08/11 12:45:26;;;;;;;2.45;1.40;;;33.80;92.90;;;;;;5139072;27;20409;-75
2022/08/11 12:53:24;;;;;;;;;;;35.30;92.30;;;;;;5138296;27;20042;-71
2022/08/11 12:58:40;;;;;;;5.15;1.13;;;35.80;92.70;;;;;;5126424;27;20104;-71
2022/08/11 13:06:36;;;;;;;2.85;1.05;;;36.10;92.80;;;;;;5131124;27;20077;-70
2022/08/11 13:09:02;;;;;;;8.25;1.23;;;36.20;92.90;;;;;;5138220;27;20492;-72
2022/08/11 13:14:15;;;;;;;2.00;0.98;;;36.40;92.10;;;;;;5136614;27;20071;-71
2022/08/11 13:19:26;;;;;;;;;;;36.20;92.30;;;;;;5118135;28;20085;-70
2022/08/11 13:21:52;;;;;;;2.38;0.70;;;36.40;92.30;;;;;;5117597;28;19916;-72
2022/08/11 13:24:20;;;;;;;3.53;1.10;;;36.40;92.40;;;;;;5117106;28;20083;-71
2022/08/11 13:26:49;;;;;;;1.77;1.05;;;36.40;92.40;;;;;;5130340;27;20043;-70
2022/08/11 13:29:20;;;;;;;1.42;0.98;;;36.70;92.30;;;;;;5136848;27;20047;-71
2022/08/11 13:31:46;;;;;;;5.38;1.10;;;36.90;92.50;;;;;;5137744;27;20031;-71
2022/08/11 13:34:15;;;;;;;3.88;1.23;;;36.40;92.20;;;;;;5110445;27;20369;-71
2022/08/11 13:36:42;;;;;;;3.35;1.00;;;36.30;92.30;;;;;;5137670;27;20335;-70
2022/08/11 13:39:09;;;;;;;5.72;0.85;;;36.70;92.10;;;;;;5127029;27;20058;-71
2022/08/11 13:41:43;;;;;;;3.05;1.17;;;36.20;91.90;;;;;;5123964;27;20039;-71
2022/08/11 13:44:12;;;;;;;2.35;0.90;;;36.20;92.00;;;;;;5119588;27;20557;-71
2022/08/11 13:46:42;;;;;;;6.00;0.93;;;36.30;92.30;;;;;;5135786;27;20039;-71
2022/08/11 13:49:08;;;;;;;5.28;1.15;;;36.30;92.00;;;;;;5136634;27;20098;-70
2022/08/11 13:51:37;;;;;;;2.53;0.90;;;36.30;92.10;;;;;;5137971;27;20039;-70
2022/08/11 13:54:14;;;;;;;3.22;1.00;;;36.10;91.70;;;;;;5137938;27;20035;-70
2022/08/11 13:56:45;;;;;;;5.18;1.00;;;35.90;91.90;;;;;;5136830;27;20381;-71
2022/08/11 13:59:13;;;;;;;3.10;0.93;;;35.90;91.70;;;;;;5137787;27;20043;-70
2022/08/11 14:01:45;;;;;;;2.58;0.90;;;35.80;91.50;;;;;;5136496;27;20343;-71
2022/08/11 14:04:19;;;;;;;3.38;1.08;;;36.00;91.70;;;;;;5137721;27;20502;-71
2022/08/11 14:06:50;;;;;;;3.40;1.10;;;36.10;91.80;;;;;;5137741;27;20127;-70
2022/08/11 14:09:23;;;;;;;1.73;0.90;;;36.00;91.60;;;;;;5137368;27;20035;-70
2022/08/11 14:14:45;;;;;;;4.22;1.23;;;35.30;91.50;;;;;;5137565;27;20046;-70
2022/08/11 14:17:12;;;;;;;1.92;1.10;;;34.70;91.60;;;;;;5137397;27;20084;-70
2022/08/11 14:19:40;;;;;;;2.60;1.00;;;34.50;91.80;;;;;;5137623;27;20043;-70
2022/08/11 14:22:06;;;;;;;4.95;1.15;;;34.60;92.00;;;;;;5137410;27;20078;-70
2022/08/11 14:24:40;;;;;;;2.25;1.10;;;34.60;91.90;;;;;;5137625;27;20035;-71
2022/08/11 14:27:07;;;;;;;4.55;1.08;;;34.70;92.00;;;;;;5137368;27;20059;-70
2022/08/11 14:29:37;;;;;;;6.00;1.10;;;34.40;91.60;;;;;;5136453;28;20055;-71
2022/08/11 14:32:05;;;;;;;2.60;0.90;;;34.30;91.50;;;;;;5137305;27;20070;-69
2022/08/11 14:34:34;;;;;;;4.30;1.15;;;34.20;91.60;;;;;;5137342;27;20039;-68
2022/08/11 14:37:06;;;;;;;3.25;1.10;;;34.60;91.80;;;;;;5137157;27;20027;-70
2022/08/11 14:39:34;;;;;;;5.85;1.48;;;34.70;91.80;;;;;;5136551;28;20114;-71
2022/08/11 14:47:49;;;;;;;2.25;1.10;;;34.50;91.50;;;;;;5108685;27;20051;-71
2022/08/11 14:50:22;;;;;;;6.35;1.02;;;34.70;91.80;;;;;;5141402;27;20042;-71
2022/08/11 14:53:00;;;;;;;3.17;1.00;;;34.50;91.80;;;;;;5140292;27;20039;-71
2022/08/11 14:58:22;;;;;;;3.85;1.13;;;35.00;92.00;;;;;;5140851;27;20054;-68
2022/08/11 15:00:59;;;;;;;3.97;1.10;;;35.20;91.80;;;;;;5141735;27;20047;-68
2022/08/11 15:03:27;;;;;;;5.32;1.25;;;35.50;91.60;;;;;;5141480;27;20054;-67
2022/08/11 15:06:01;;;;;;;3.08;1.00;;;35.60;91.90;;;;;;5140947;27;20074;-69
2022/08/11 15:14:08;;;;;;;3.85;1.40;;;35.80;92.00;;;;;;5139674;27;20134;-68
2022/08/11 15:19:23;;;;;;;3.17;1.20;;;36.10;92.10;;;;;;5140607;27;20047;-67
2022/08/11 15:24:35;;;;;;;4.60;1.23;;;36.40;92.10;;;;;;5140554;27;20331;-67
2022/08/11 15:38:12;;;;;;;1.45;0.93;;;35.60;92.20;;;;;;5140357;27;20046;-68
2022/08/11 15:46:38;;;;;;;4.47;1.30;;;35.70;91.90;;;;;;5119773;27;20043;-69
2022/08/11 15:49:12;;;;;;;2.35;1.00;;;36.10;92.10;;;;;;5118408;28;20051;-69
2022/08/11 15:51:48;;;;;;;2.55;1.15;;;35.60;91.90;;;;;;5119457;28;20042;-69
2022/08/11 15:54:18;;;;;;;3.58;1.27;;;35.20;92.10;;;;;;5152665;27;20035;-69
2022/08/11 15:56:48;;;;;;;3.30;1.10;;;35.60;92.30;;;;;;5119151;28;20035;-69
2022/08/11 16:04:45;;;;;;;6.90;1.40;;;35.50;92.10;;;;;;5118969;28;20126;-68
2022/08/11 16:07:15;;;;;;;3.15;1.10;;;35.80;92.20;;;;;;5119006;28;20044;-69
2022/08/11 16:09:47;;;;;;;2.40;1.17;;;35.70;92.10;;;;;;5118999;27;20071;-69
2022/08/11 16:12:16;;;;;;;2.38;1.02;;;34.90;92.00;;;;;;5118262;28;20046;-68
2022/08/11 16:17:33;;;;;;;5.35;1.30;;;34.80;92.20;;;;;;5117778;28;20054;-67
2022/08/11 16:20:01;;;;;;;2.08;1.45;;;35.20;92.20;;;;;;5119019;28;20079;-67
2022/08/11 16:22:45;;;;;;;8.27;1.90;;;34.90;92.30;;;;;;5119172;28;20048;-70
2022/08/11 16:25:16;;;;;;;4.97;1.20;;;34.40;92.20;;;;;;5118757;28;20054;-69
2022/08/11 16:27:46;;;;;;;4.05;1.30;;;34.70;92.30;;;;;;5117672;28;20432;-69
2022/08/11 16:30:14;;;;;;;4.38;1.25;;;35.00;92.30;;;;;;5119203;28;20046;-69
2022/08/11 16:32:44;;;;;;;3.17;1.17;;;35.10;92.50;;;;;;5118835;28;20043;-69
2022/08/11 16:38:34;;;;;;;3.28;1.20;;;34.20;92.30;;;;;;5075914;28;20041;-69
2022/08/11 16:41:04;;;;;;;5.10;1.30;;;34.10;92.30;;;;;;5075890;28;20047;-69
2022/08/11 16:49:50;;;;;;;6.57;1.33;;;33.30;92.40;;;;;;5118588;28;20341;-65
2022/08/11 16:52:16;;;;;;;3.58;1.38;;;32.80;92.30;;;;;;5115521;28;20050;-82
2022/08/11 16:54:44;;;;;;;3.67;1.33;;;31.70;92.60;;;;;;5134375;27;20184;-71
2022/08/11 17:00:03;;;;;;;2.13;1.20;;;31.20;92.80;;;;;;5118119;28;20493;-71
2022/08/11 17:13:47;;;;;;;3.97;1.30;;;30.60;93.10;;;;;;5118110;28;20043;-68
2022/08/11 17:16:18;;;;;;;3.78;1.42;;;30.50;93.20;;;;;;5117508;28;20028;-68
2022/08/11 17:18:59;;;;;;;4.20;1.55;;;30.50;93.00;;;;;;5117040;28;20119;-67
2022/08/11 17:21:29;;;;;;;3.25;1.08;;;30.70;93.10;;;;;;5151043;27;20042;-67
2022/08/11 17:24:07;;;;;;;5.65;1.33;;;30.50;93.20;;;;;;5117752;28;20036;-68
2022/08/11 17:26:56;;;;;;;4.47;1.27;;;30.50;93.40;;;;;;5117532;28;20455;-67
2022/08/11 17:29:33;;;;;;;3.40;1.38;;;30.10;93.20;;;;;;5117764;28;20097;-67
2022/08/11 17:37:40;;;;;;;3.17;1.30;;;29.80;93.50;;;;;;5117524;28;20046;-68
2022/08/11 17:40:12;;;;;;;2.67;1.30;;;29.70;93.40;;;;;;5116373;28;20050;-68
2022/08/11 17:48:24;;;;;;;2.17;1.10;;;29.20;93.60;;;;;;5150570;27;20348;-67
2022/08/11 17:51:06;;;;;;;4.65;1.50;;;29.40;93.80;;;;;;5116888;28;20060;-67
2022/08/11 18:03:27;;;;;;;6.50;1.33;;;29.40;93.70;;;;;;5117404;28;20050;-67
2022/08/11 18:04:48;;;;;;;5.07;1.20;;;29.40;93.80;;;;;;5116887;28;20440;-68
